Time;durP1;ratioP1;P1;durP2;ratioP2;P2;SDS_P1;SDS_P2;PMS_P1;PMS_P2;Temp;Humidity;BMP_temperature;BMP_pressure;BME280_temperature;BME280_humidity;BME280_pressure;Samples;Min_cycle;Max_cycle;Signal;HPM_P1;HPM_P2
2023/09/29 00:01:18;;;;;;;;;10.33;7.00;;;;;21.59;67.40;101117.72;5111782;27;45217;-69
2023/09/29 00:03:46;;;;;;;;;6.67;5.00;;;;;21.61;67.23;101112.31;5110218;27;45533;-68
2023/09/29 00:06:12;;;;;;;;;5.00;4.67;;;;;21.57;67.65;101108.91;5109074;27;45616;-69
2023/09/29 00:08:38;;;;;;;;;9.67;7.33;;;;;21.49;67.83;101102.97;5118319;27;45584;-69
2023/09/29 00:11:03;;;;;;;;;10.33;7.00;;;;;21.55;67.83;101109.91;5114984;27;45573;-69
2023/09/29 00:13:29;;;;;;;;;7.00;7.00;;;;;21.57;67.80;101114.25;5110447;27;45858;-69
2023/09/29 00:15:54;;;;;;;;;3.33;2.00;;;;;21.54;68.16;101116.13;5119580;27;45250;-70
2023/09/29 00:18:20;;;;;;;;;7.67;7.33;;;;;21.54;68.42;101108.13;5118680;27;46320;-69
2023/09/29 00:20:45;;;;;;;;;8.00;7.00;;;;;21.53;68.15;101099.28;5111913;27;45603;-69
2023/09/29 00:23:12;;;;;;;;;7.00;6.00;;;;;21.52;67.97;101104.66;5119470;27;45575;-69
2023/09/29 00:25:38;;;;;;;;;6.00;5.33;;;;;21.52;68.46;101091.34;5112142;27;45271;-68
2023/09/29 00:28:05;;;;;;;;;5.33;5.33;;;;;21.42;68.77;101082.81;5104802;27;46104;-68
2023/09/29 00:30:30;;;;;;;;;7.33;5.00;;;;;21.51;68.68;101090.47;5120570;27;45343;-68
2023/09/29 00:32:56;;;;;;;;;5.67;5.67;;;;;21.55;68.53;101096.56;5110689;27;45437;-68
2023/09/29 00:35:27;;;;;;;;;7.00;7.00;;;;;21.54;68.66;101089.47;5120664;27;45417;-69
2023/09/29 00:37:57;;;;;;;;;4.67;3.33;;;;;21.54;68.64;101090.34;5135904;27;47307;-68
2023/09/29 00:40:25;;;;;;;;;10.33;6.00;;;;;21.55;68.76;101089.44;5120615;27;45473;-68
2023/09/29 00:42:52;;;;;;;;;4.33;4.33;;;;;21.56;68.72;101085.81;5120666;27;45508;-67
2023/09/29 00:45:26;;;;;;;;;5.33;5.33;;;;;21.59;68.53;101093.72;5121039;27;45600;-68
2023/09/29 00:47:59;;;;;;;;;5.33;5.33;;;;;21.63;68.48;101077.63;5120662;27;45540;-68
2023/09/29 00:50:29;;;;;;;;;8.00;7.00;;;;;21.65;68.04;101083.75;5121044;27;45416;-68
2023/09/29 00:52:58;;;;;;;;;5.33;5.33;;;;;21.67;68.25;101084.56;5120238;27;45442;-68
2023/09/29 00:55:27;;;;;;;;;6.33;6.33;;;;;21.71;68.18;101087.06;5117003;27;45368;-68
2023/09/29 00:57:57;;;;;;;;;5.33;5.33;;;;;21.72;68.19;101080.78;5114792;27;46682;-67
2023/09/29 01:00:42;;;;;;;;;7.00;5.00;;;;;21.66;68.08;101067.69;5111090;27;45575;-68
2023/09/29 01:03:15;;;;;;;;;6.33;6.00;;;;;21.73;67.86;101068.31;5101676;27;45507;-67
2023/09/29 01:05:47;;;;;;;;;7.00;5.33;;;;;21.69;68.23;101067.59;5102407;27;45499;-67
2023/09/29 01:08:17;;;;;;;;;9.33;7.00;;;;;21.71;67.98;101055.06;5116863;27;46613;-67
2023/09/29 01:10:44;;;;;;;;;6.00;6.00;;;;;21.70;68.25;101049.78;5135701;27;45658;-68
2023/09/29 01:13:10;;;;;;;;;7.33;7.33;;;;;21.68;68.03;101043.66;5111622;27;45591;-67
2023/09/29 01:15:36;;;;;;;;;6.33;5.00;;;;;21.66;68.25;101041.03;5116958;27;45528;-68
2023/09/29 01:18:03;;;;;;;;;5.00;5.00;;;;;21.64;68.32;101042.91;5115543;27;45384;-68
2023/09/29 01:20:32;;;;;;;;;6.33;5.67;;;;;21.56;68.40;101029.84;5119883;27;45471;-68
2023/09/29 01:23:03;;;;;;;;;6.33;6.33;;;;;21.68;68.38;101044.50;5108786;27;45435;-68
2023/09/29 01:25:29;;;;;;;;;6.00;5.00;;;;;21.62;67.94;101023.44;5101495;27;45537;-68
2023/09/29 01:27:56;;;;;;;;;6.33;6.00;;;;;21.74;68.25;101040.75;5112155;27;45501;-68
2023/09/29 01:30:22;;;;;;;;;7.00;7.00;;;;;21.62;68.09;101027.88;5117787;27;45470;-68
2023/09/29 01:32:53;;;;;;;;;6.00;5.67;;;;;21.67;67.82;101032.13;5119549;27;45574;-68
2023/09/29 01:35:21;;;;;;;;;7.00;6.33;;;;;21.56;68.22;101027.19;5113798;27;45465;-68
2023/09/29 01:37:55;;;;;;;;;7.00;6.00;;;;;21.54;68.23;101030.84;5119368;27;45219;-67
2023/09/29 01:40:22;;;;;;;;;5.00;5.00;;;;;21.55;68.18;101041.47;5119052;27;45475;-68
2023/09/29 01:42:49;;;;;;;;;7.00;6.00;;;;;21.65;68.13;101043.78;5119225;27;45570;-68
2023/09/29 01:45:16;;;;;;;;;7.33;6.00;;;;;21.64;67.89;101039.34;5135387;27;45695;-67
2023/09/29 01:47:43;;;;;;;;;5.00;5.00;;;;;21.60;67.67;101034.16;5118958;27;46458;-69
2023/09/29 01:50:14;;;;;;;;;6.33;5.00;;;;;21.61;68.02;101056.34;5116279;27;45457;-68
2023/09/29 01:52:40;;;;;;;;;5.67;4.67;;;;;21.59;67.81;101045.75;5112479;27;45324;-68
2023/09/29 01:55:15;;;;;;;;;7.67;5.67;;;;;21.62;67.83;101047.44;5119385;27;45387;-68
2023/09/29 01:57:44;;;;;;;;;4.00;4.00;;;;;21.64;67.68;101040.25;5119564;27;46200;-68
2023/09/29 02:00:14;;;;;;;;;5.00;5.00;;;;;21.57;68.05;101047.59;5119956;27;45469;-68
2023/09/29 02:02:41;;;;;;;;;6.33;5.67;;;;;21.58;67.86;101048.47;5119172;27;45777;-68
2023/09/29 02:05:10;;;;;;;;;6.33;6.33;;;;;21.58;67.72;101032.47;5119995;27;45351;-68
2023/09/29 02:07:36;;;;;;;;;7.33;6.00;;;;;21.57;67.88;101042.28;5119892;27;45487;-69
2023/09/29 02:10:03;;;;;;;;;7.00;5.33;;;;;21.55;67.87;101035.28;5120638;27;45665;-68
2023/09/29 02:12:29;;;;;;;;;5.33;5.33;;;;;21.57;67.84;101034.28;5119338;27;45464;-69
2023/09/29 02:14:55;;;;;;;;;6.00;5.67;;;;;21.36;67.72;101013.75;5118796;27;45296;-68
2023/09/29 02:17:21;;;;;;;;;7.00;7.00;;;;;21.49;67.67;101039.03;5118909;27;46796;-68
2023/09/29 02:19:47;;;;;;;;;7.00;7.00;;;;;21.49;67.62;101051.47;5117701;27;45874;-67
2023/09/29 02:22:16;;;;;;;;;6.00;6.00;;;;;21.47;67.85;101051.53;5120673;27;45648;-68
2023/09/29 02:24:43;;;;;;;;;5.00;5.00;;;;;21.51;67.54;101045.16;5120531;27;45478;-69
2023/09/29 02:27:10;;;;;;;;;6.33;6.33;;;;;21.40;67.42;101034.03;5118512;27;45578;-67
2023/09/29 02:29:35;;;;;;;;;8.00;4.67;;;;;21.53;67.30;101061.97;5119177;27;45498;-67
2023/09/29 02:32:01;;;;;;;;;4.67;4.00;;;;;21.44;67.07;101048.13;5114982;27;45330;-67
2023/09/29 02:34:28;;;;;;;;;7.00;6.00;;;;;21.43;66.73;101041.94;5111854;27;45558;-67
2023/09/29 02:36:54;;;;;;;;;8.33;5.33;;;;;21.50;66.95;101046.09;5118784;27;45808;-69
2023/09/29 02:39:20;;;;;;;;;4.00;4.00;;;;;21.54;66.36;101061.03;5117601;27;45616;-68
2023/09/29 02:41:45;;;;;;;;;7.00;6.00;;;;;21.55;66.33;101065.44;5118937;27;45421;-66
2023/09/29 02:44:11;;;;;;;;;7.00;4.00;;;;;21.60;66.33;101059.94;5118998;27;45497;-68
2023/09/29 02:46:36;;;;;;;;;6.33;5.00;;;;;21.56;66.17;101045.84;5118259;27;45609;-68
2023/09/29 02:49:03;;;;;;;;;3.00;3.00;;;;;21.56;66.34;101052.97;5116957;27;45444;-68
2023/09/29 02:51:29;;;;;;;;;4.00;4.00;;;;;21.50;66.21;101039.91;5118356;27;45458;-68
2023/09/29 02:53:55;;;;;;;;;4.67;4.67;;;;;21.47;66.11;101040.88;5118420;27;45424;-67
2023/09/29 02:56:23;;;;;;;;;8.00;4.00;;;;;21.45;66.43;101026.75;5118287;27;45440;-68
2023/09/29 02:58:53;;;;;;;;;5.00;3.67;;;;;21.36;66.07;101019.94;5119076;27;45594;-69
2023/09/29 03:01:20;;;;;;;;;3.00;2.67;;;;;21.51;65.82;101029.19;5132900;27;45490;-68
2023/09/29 03:03:46;;;;;;;;;5.00;4.00;;;;;21.57;65.67;101036.94;5105593;27;45816;-68
2023/09/29 03:06:23;;;;;;;;;3.00;3.00;;;;;21.64;65.49;101045.56;5102216;27;45398;-68
2023/09/29 03:08:54;;;;;;;;;3.67;2.00;;;;;21.64;65.47;101053.56;5111832;27;45435;-67
2023/09/29 03:11:21;;;;;;;;;5.67;4.00;;;;;21.57;65.52;101052.94;5118515;27;45453;-68
2023/09/29 03:13:50;;;;;;;;;4.67;3.00;;;;;21.57;65.36;101046.75;5118263;27;45464;-68
2023/09/29 03:16:18;;;;;;;;;2.00;2.00;;;;;21.59;65.89;101048.41;5115477;27;46278;-68
2023/09/29 03:18:44;;;;;;;;;4.00;4.00;;;;;21.55;66.20;101049.47;5118171;27;45473;-68
2023/09/29 03:21:10;;;;;;;;;2.33;2.33;;;;;21.54;66.30;101046.84;5118846;27;45434;-68
2023/09/29 03:23:36;;;;;;;;;2.00;2.00;;;;;21.54;66.15;101042.38;5118669;27;45403;-67
2023/09/29 03:26:03;;;;;;;;;2.33;2.33;;;;;21.48;66.50;101037.28;5117705;27;46506;-66
2023/09/29 03:28:29;;;;;;;;;5.00;3.00;;;;;21.45;66.75;101034.75;5117813;27;45474;-67
2023/09/29 03:30:55;;;;;;;;;3.00;3.00;;;;;21.39;66.93;101049.16;5110251;27;45582;-68
2023/09/29 03:33:21;;;;;;;;;2.00;2.00;;;;;21.31;66.47;101047.72;5117986;27;45785;-68
2023/09/29 03:35:47;;;;;;;;;2.00;2.00;;;;;21.38;66.92;101054.53;5118935;27;45566;-67
2023/09/29 03:38:20;;;;;;;;;6.00;4.00;;;;;21.11;66.75;101006.69;5117737;27;45600;-67
2023/09/29 03:40:50;;;;;;;;;4.33;3.33;;;;;21.32;67.15;101046.78;5118448;27;45447;-67
2023/09/29 03:43:17;;;;;;;;;5.33;2.33;;;;;20.69;67.55;100964.78;5118460;27;45434;-67
2023/09/29 03:45:42;;;;;;;;;4.33;2.67;;;;;21.20;67.61;101047.22;5113501;27;46447;-68
2023/09/29 03:48:09;;;;;;;;;3.00;2.67;;;;;21.08;67.84;101044.09;5134498;27;45483;-69
2023/09/29 03:50:36;;;;;;;;;3.00;2.67;;;;;21.13;67.78;101052.78;5119550;27;45407;-69
2023/09/29 03:53:01;;;;;;;;;4.67;3.33;;;;;21.19;67.78;101054.38;5118759;27;45548;-68
2023/09/29 03:55:27;;;;;;;;;4.33;3.00;;;;;21.16;67.90;101054.47;5119359;27;46045;-69
2023/09/29 03:57:53;;;;;;;;;6.00;4.00;;;;;20.94;68.32;101031.28;5117666;27;45523;-68
2023/09/29 04:00:21;;;;;;;;;3.33;3.33;;;;;20.99;68.43;101047.09;5106608;27;45505;-69
2023/09/29 04:02:50;;;;;;;;;5.00;4.00;;;;;20.52;68.73;100978.66;5113759;27;45565;-68
2023/09/29 04:05:17;;;;;;;;;4.00;2.33;;;;;20.80;68.52;101022.91;5118294;27;46569;-68
2023/09/29 04:07:43;;;;;;;;;6.67;3.00;;;;;20.71;68.68;101005.47;5116982;27;45436;-69
2023/09/29 04:10:10;;;;;;;;;3.33;3.00;;;;;21.00;68.80;101062.16;5117356;27;45330;-67
2023/09/29 04:12:48;;;;;;;;;4.00;3.00;;;;;20.86;68.94;101041.34;5117597;27;45479;-68
2023/09/29 04:15:15;;;;;;;;;5.00;2.67;;;;;20.61;69.16;101008.53;5116393;27;45827;-68
2023/09/29 04:17:43;;;;;;;;;4.33;4.33;;;;;20.65;68.72;101024.34;5117358;27;45470;-67
2023/09/29 04:20:10;;;;;;;;;3.67;2.67;;;;;20.95;68.57;101091.59;5115915;27;45415;-69
2023/09/29 04:22:35;;;;;;;;;3.67;3.00;;;;;20.73;69.07;101064.84;5116478;27;45403;-68
2023/09/29 04:25:09;;;;;;;;;6.00;3.00;;;;;20.78;68.66;101071.81;5118522;27;46356;-68
2023/09/29 04:27:35;;;;;;;;;4.33;3.00;;;;;21.05;68.61;101126.78;5117899;27;45482;-67
2023/09/29 04:30:03;;;;;;;;;4.33;4.33;;;;;21.06;68.57;101122.31;5110691;27;45388;-68
2023/09/29 04:32:29;;;;;;;;;6.67;4.33;;;;;21.10;68.41;101124.81;5117901;27;45371;-70
2023/09/29 04:34:54;;;;;;;;;3.00;3.00;;;;;21.09;68.42;101119.53;5116585;27;46243;-69
2023/09/29 04:37:55;;;;;;;;;3.00;3.00;;;;;20.79;68.78;101076.25;5115859;27;45312;-68
2023/09/29 04:40:24;;;;;;;;;4.00;2.00;;;;;21.02;68.71;101118.00;5115326;27;45544;-69
2023/09/29 04:42:54;;;;;;;;;6.00;4.33;;;;;20.77;69.25;101084.25;5112266;27;45442;-68
2023/09/29 04:45:20;;;;;;;;;4.00;4.00;;;;;20.96;69.32;101113.78;5109134;27;46429;-67
2023/09/29 04:47:45;;;;;;;;;5.00;4.00;;;;;20.88;69.20;101116.72;5115102;27;45475;-67
2023/09/29 04:50:14;;;;;;;;;3.33;2.00;;;;;20.94;69.21;101124.47;5130942;27;45607;-66
2023/09/29 04:52:39;;;;;;;;;4.33;3.00;;;;;20.92;69.35;101131.63;5112929;27;45514;-67
2023/09/29 04:55:05;;;;;;;;;4.33;3.33;;;;;20.93;69.12;101124.53;5119355;27;45549;-69
2023/09/29 04:57:41;;;;;;;;;5.67;4.67;;;;;20.87;68.79;101104.31;5107854;27;45515;-70
2023/09/29 05:00:07;;;;;;;;;3.00;3.00;;;;;20.91;69.15;101116.59;5114877;27;45534;-68
2023/09/29 05:02:33;;;;;;;;;4.33;2.00;;;;;20.98;68.81;101108.41;5119022;27;45479;-68
2023/09/29 05:05:02;;;;;;;;;7.67;3.33;;;;;21.07;68.32;101118.69;5120471;27;45549;-68
2023/09/29 05:07:31;;;;;;;;;4.00;4.00;;;;;21.01;68.26;101117.13;5117115;27;45442;-68
2023/09/29 05:09:57;;;;;;;;;5.67;3.67;;;;;21.11;68.32;101136.31;5114240;27;45417;-68
2023/09/29 05:12:22;;;;;;;;;4.00;3.00;;;;;21.10;68.19;101124.81;5114304;27;45607;-67
2023/09/29 05:14:51;;;;;;;;;5.33;3.33;;;;;21.08;68.10;101123.13;5118933;27;45380;-68
2023/09/29 05:17:24;;;;;;;;;3.00;3.00;;;;;21.22;67.52;101122.63;5113400;27;45344;-68
2023/09/29 05:19:50;;;;;;;;;7.00;3.33;;;;;21.24;67.54;101128.78;5134473;27;45457;-68
2023/09/29 05:22:21;;;;;;;;;6.00;5.00;;;;;21.28;67.73;101141.91;5112438;27;45507;-69
2023/09/29 05:24:47;;;;;;;;;6.67;6.33;;;;;21.21;67.50;101124.41;5109264;27;45625;-68
2023/09/29 05:27:13;;;;;;;;;9.67;4.67;;;;;20.96;66.96;101074.69;5101162;27;45604;-68
2023/09/29 05:29:39;;;;;;;;;6.00;3.67;;;;;21.09;67.21;101115.06;5101254;27;45547;-68
2023/09/29 05:32:11;;;;;;;;;8.33;4.67;;;;;20.92;67.20;101107.66;5132850;27;45576;-67
2023/09/29 05:34:37;;;;;;;;;6.00;5.00;;;;;20.90;67.16;101093.53;5117295;27;45632;-68
2023/09/29 05:37:04;;;;;;;;;5.33;5.00;;;;;20.89;67.36;101118.44;5120527;27;45656;-69
2023/09/29 05:39:31;;;;;;;;;7.00;4.67;;;;;20.86;67.51;101118.56;5121068;27;45446;-70
2023/09/29 05:42:04;;;;;;;;;5.00;3.67;;;;;20.95;67.61;101133.31;5117576;27;45387;-69
2023/09/29 05:44:29;;;;;;;;;6.67;4.00;;;;;21.16;67.52;101169.00;5110987;27;45391;-68
2023/09/29 05:46:55;;;;;;;;;6.33;4.33;;;;;21.03;67.16;101152.56;5119591;27;45400;-69
2023/09/29 05:49:21;;;;;;;;;10.00;5.67;;;;;21.19;66.99;101168.91;5114270;27;45515;-67
2023/09/29 05:51:48;;;;;;;;;7.00;4.00;;;;;21.25;66.96;101168.66;5118601;27;45510;-69
2023/09/29 05:54:14;;;;;;;;;5.00;4.00;;;;;21.17;66.43;101152.97;5117620;27;47707;-68
2023/09/29 05:56:56;;;;;;;;;7.00;4.00;;;;;21.37;66.30;101183.34;5112876;27;45532;-68
2023/09/29 05:59:24;;;;;;;;;6.67;5.33;;;;;21.34;66.44;101191.44;5118725;27;45479;-68
2023/09/29 06:01:50;;;;;;;;;8.00;6.33;;;;;21.36;65.88;101184.28;5117276;27;45480;-68
2023/09/29 06:04:16;;;;;;;;;8.00;4.00;;;;;20.97;65.89;101120.81;5117646;27;45396;-68
2023/09/29 06:06:41;;;;;;;;;5.67;5.33;;;;;21.41;65.65;101195.69;5119125;27;45320;-68
2023/09/29 06:09:07;;;;;;;;;6.00;4.00;;;;;21.25;65.67;101178.47;5119009;27;45323;-67
2023/09/29 06:11:33;;;;;;;;;8.00;5.00;;;;;21.43;65.49;101204.50;5119273;27;45586;-69
2023/09/29 06:13:59;;;;;;;;;4.67;2.67;;;;;21.48;65.01;101213.19;5108342;27;46590;-67
2023/09/29 06:16:25;;;;;;;;;8.00;6.67;;;;;21.37;65.76;101210.00;5117409;27;45485;-68
2023/09/29 06:18:51;;;;;;;;;11.33;5.67;;;;;21.36;65.80;101221.59;5119748;27;45358;-67
2023/09/29 06:21:16;;;;;;;;;7.33;5.33;;;;;21.42;65.11;101215.19;5117341;27;45491;-68
2023/09/29 06:23:42;;;;;;;;;8.67;5.33;;;;;21.41;65.32;101216.13;5116603;27;45521;-68
2023/09/29 06:26:08;;;;;;;;;11.33;6.33;;;;;20.90;64.92;101144.13;5115037;27;45430;-68
2023/09/29 06:28:34;;;;;;;;;10.67;5.33;;;;;21.44;64.69;101216.88;5107767;27;45911;-69
2023/09/29 06:30:59;;;;;;;;;12.00;6.67;;;;;21.49;64.54;101227.38;5111510;27;45407;-67
2023/09/29 06:33:28;;;;;;;;;9.67;5.33;;;;;21.33;64.03;101200.34;5117009;27;47907;-66
2023/09/29 06:35:53;;;;;;;;;7.33;2.33;;;;;21.26;63.88;101173.09;5118674;27;45519;-68
2023/09/29 06:38:19;;;;;;;;;9.00;5.33;;;;;21.47;63.50;101226.56;5119030;27;45722;-69
2023/09/29 06:40:46;;;;;;;;;12.33;9.67;;;;;21.48;63.24;101233.63;5118699;27;45414;-67
2023/09/29 06:43:11;;;;;;;;;12.33;6.67;;;;;21.52;63.46;101245.91;5117570;27;46527;-70
2023/09/29 06:45:38;;;;;;;;;14.00;4.33;;;;;21.47;63.01;101243.41;5117851;27;45831;-68
2023/09/29 06:48:04;;;;;;;;;10.00;6.00;;;;;21.63;63.16;101253.53;5118835;27;45505;-68
2023/09/29 06:50:31;;;;;;;;;11.00;8.00;;;;;21.37;62.21;101186.00;5118582;27;45201;-68
2023/09/29 06:52:56;;;;;;;;;11.33;7.67;;;;;21.61;62.39;101226.94;5118573;27;45430;-66
2023/09/29 06:55:22;;;;;;;;;11.67;7.00;;;;;21.79;62.03;101255.59;5104349;27;45387;-68
2023/09/29 06:57:48;;;;;;;;;9.00;7.67;;;;;21.84;61.93;101259.91;5116386;27;45517;-68
2023/09/29 07:00:14;;;;;;;;;13.00;7.33;;;;;21.84;61.69;101252.75;5114647;27;45553;-68
2023/09/29 07:02:39;;;;;;;;;14.00;10.67;;;;;21.83;61.16;101264.34;5119550;27;46501;-68
2023/09/29 07:05:05;;;;;;;;;13.67;7.33;;;;;21.91;61.00;101275.59;5118354;27;45426;-68
2023/09/29 07:07:31;;;;;;;;;13.67;7.00;;;;;21.94;61.08;101274.63;5117983;27;45598;-69
2023/09/29 07:09:57;;;;;;;;;10.33;6.00;;;;;21.94;61.00;101293.28;5118032;27;45321;-69
2023/09/29 07:12:23;;;;;;;;;6.67;6.00;;;;;21.96;60.71;101308.31;5117866;27;46151;-69
2023/09/29 07:14:49;;;;;;;;;10.00;5.33;;;;;21.96;60.63;101310.97;5117511;27;45417;-69
2023/09/29 07:17:14;;;;;;;;;10.00;7.00;;;;;21.97;60.69;101318.06;5118239;27;45348;-68
2023/09/29 07:19:40;;;;;;;;;14.33;6.00;;;;;21.95;60.49;101309.25;5118105;27;45324;-68
2023/09/29 07:22:06;;;;;;;;;9.33;6.00;;;;;22.01;60.85;101326.81;5118283;27;46530;-68
2023/09/29 07:24:31;;;;;;;;;8.00;5.00;;;;;22.03;60.72;101322.28;5119370;27;45438;-69
2023/09/29 07:26:57;;;;;;;;;11.33;8.33;;;;;22.02;60.73;101324.09;5117747;27;45455;-68
2023/09/29 07:29:22;;;;;;;;;7.00;4.67;;;;;21.93;60.54;101307.56;5118617;27;45385;-68
2023/09/29 07:31:49;;;;;;;;;6.33;5.00;;;;;22.04;60.59;101337.34;5116932;27;46528;-69
2023/09/29 07:34:17;;;;;;;;;11.33;3.67;;;;;21.97;60.43;101333.16;5118096;27;45421;-68
2023/09/29 07:36:44;;;;;;;;;5.67;4.00;;;;;22.05;60.68;101340.91;5117767;27;45371;-68
2023/09/29 07:39:14;;;;;;;;;8.67;3.33;;;;;22.12;60.30;101345.09;5117842;27;45541;-68
2023/09/29 07:41:40;;;;;;;;;4.67;3.00;;;;;22.07;60.60;101323.03;5115745;27;45554;-68
2023/09/29 07:44:08;;;;;;;;;8.67;5.00;;;;;22.18;60.19;101347.53;5118538;27;45542;-68
2023/09/29 07:46:37;;;;;;;;;7.00;3.00;;;;;22.12;60.41;101356.63;5115835;27;45390;-69
2023/09/29 07:49:03;;;;;;;;;6.00;3.00;;;;;22.14;60.51;101361.91;5104490;27;45398;-69
2023/09/29 07:51:30;;;;;;;;;4.67;4.00;;;;;22.14;60.34;101372.56;5115928;27;46160;-69
2023/09/29 07:53:59;;;;;;;;;9.00;4.50;;;;;22.08;60.49;101375.47;5116246;27;45478;-68
2023/09/29 07:56:25;;;;;;;;;6.67;5.00;;;;;22.00;60.56;101365.09;5112350;27;45260;-68
2023/09/29 07:58:51;;;;;;;;;7.67;5.00;;;;;22.04;60.85;101385.38;5116183;27;45206;-68
2023/09/29 08:01:17;;;;;;;;;7.67;3.00;;;;;21.94;60.73;101375.97;5118599;27;46117;-67
2023/09/29 08:03:44;;;;;;;;;6.00;3.33;;;;;22.05;61.00;101400.47;5100714;27;45365;-67
2023/09/29 08:06:10;;;;;;;;;6.00;3.00;;;;;21.98;60.91;101389.13;5113559;27;45467;-68
2023/09/29 08:08:35;;;;;;;;;4.00;4.00;;;;;21.88;60.99;101368.16;5116781;27;45476;-68
2023/09/29 08:11:01;;;;;;;;;7.00;3.00;;;;;22.11;61.01;101412.69;5116874;27;47719;-68
2023/09/29 08:13:31;;;;;;;;;3.00;3.00;;;;;22.12;61.11;101418.00;5117423;27;45417;-68
2023/09/29 08:15:56;;;;;;;;;4.50;2.25;;;;;22.12;60.97;101410.00;5115945;27;45449;-69
2023/09/29 08:18:22;;;;;;;;;6.00;2.00;;;;;22.20;60.59;101415.06;5110107;27;45479;-68
2023/09/29 08:20:53;;;;;;;;;4.00;2.33;;;;;22.17;60.55;101405.38;5097409;27;45274;-69
2023/09/29 08:23:19;;;;;;;;;2.00;2.00;;;;;22.25;60.19;101429.13;5102469;27;45498;-68
2023/09/29 08:25:46;;;;;;;;;1.50;1.00;;;;;22.22;60.72;101414.09;5100389;27;45332;-69
2023/09/29 08:28:13;;;;;;;;;4.25;2.25;;;;;22.26;60.74;101433.56;5102359;27;45468;-68
2023/09/29 08:30:40;;;;;;;;;1.50;1.50;;;;;22.29;61.06;101435.25;5101213;27;46591;-68
2023/09/29 08:33:06;;;;;;;;;1.00;1.00;;;;;22.22;60.84;101442.59;5119180;27;45475;-68
2023/09/29 08:35:35;;;;;;;;;2.25;1.25;;;;;22.17;60.66;101445.38;5119175;27;45422;-67
2023/09/29 08:38:01;;;;;;;;;5.75;2.50;;;;;22.22;60.91;101462.13;5111690;27;46015;-66
2023/09/29 08:40:27;;;;;;;;;1.75;1.50;;;;;22.21;60.51;101460.41;5117266;27;45499;-67
2023/09/29 08:42:52;;;;;;;;;5.00;1.75;;;;;22.22;60.57;101474.59;5118902;27;45352;-67
2023/09/29 08:45:19;;;;;;;;;3.00;1.00;;;;;22.20;60.09;101479.09;5111851;27;45543;-68
2023/09/29 08:47:52;;;;;;;;;1.50;0.25;;;;;22.20;60.03;101479.09;5120838;27;45517;-68
2023/09/29 08:50:23;;;;;;;;;0.75;0.75;;;;;22.12;60.21;101489.16;5118035;27;45757;-68
2023/09/29 08:52:56;;;;;;;;;2.50;0.00;;;;;22.18;60.03;101497.81;5118551;27;45461;-68
2023/09/29 08:55:24;;;;;;;;;1.00;1.00;;;;;22.10;59.90;101477.66;5120844;27;45403;-68
2023/09/29 08:57:49;;;;;;;;;0.25;0.25;;;;;22.25;59.57;101493.16;5120912;27;45710;-69
2023/09/29 09:00:16;;;;;;;;;3.00;1.00;;;;;22.21;58.95;101478.22;5112644;27;45782;-69
2023/09/29 09:02:44;;;;;;;;;0.00;0.00;;;;;22.44;58.44;101475.56;5115014;27;45551;-69
2023/09/29 09:05:12;;;;;;;;;0.00;0.00;;;;;22.74;57.82;101495.91;5110350;27;45349;-68
2023/09/29 09:07:41;;;;;;;;;0.50;0.00;;;;;22.88;57.26;101511.41;5119442;27;45379;-68
2023/09/29 09:10:07;;;;;;;;;0.00;0.00;;;;;23.05;56.65;101515.22;5120324;27;46485;-67
2023/09/29 09:12:37;;;;;;;;;0.00;0.00;;;;;23.06;56.35;101521.44;5119367;27;45537;-66
2023/09/29 09:15:04;;;;;;;;;0.00;0.00;;;;;23.06;56.32;101527.66;5119840;27;45599;-68
2023/09/29 09:17:35;;;;;;;;;0.00;0.00;;;;;22.93;55.74;101531.69;5119908;27;45463;-68
2023/09/29 09:20:01;;;;;;;;;0.00;0.00;;;;;22.92;55.97;101537.06;5107730;27;45542;-67
2023/09/29 09:22:32;;;;;;;;;0.00;0.00;;;;;22.85;55.79;101541.75;5098459;27;45575;-69
2023/09/29 09:25:04;;;;;;;;;0.00;0.00;;;;;22.78;56.31;101540.22;5120353;27;45527;-69
2023/09/29 09:27:39;;;;;;;;;0.00;0.00;;;;;22.64;55.99;101535.41;5120083;27;45454;-66
2023/09/29 09:30:05;;;;;;;;;0.00;0.00;;;;;22.71;56.56;101555.63;5118643;27;46247;-67
2023/09/29 09:32:32;;;;;;;;;0.00;0.00;;;;;22.65;56.63;101553.16;5109510;27;45783;-68
2023/09/29 09:34:58;;;;;;;;;0.00;0.00;;;;;22.65;56.67;101561.19;5118506;27;45360;-68
2023/09/29 09:37:24;;;;;;;;;0.25;0.00;;;;;22.65;56.95;101572.72;5119399;27;45568;-68
2023/09/29 09:39:54;;;;;;;;;1.50;0.00;;;;;22.78;57.43;101582.97;5114427;27;46042;-68
2023/09/29 09:42:24;;;;;;;;;0.00;0.00;;;;;22.74;57.06;101584.88;5119372;27;45351;-69
2023/09/29 09:44:50;;;;;;;;;0.00;0.00;;;;;22.71;57.82;101592.13;5118454;27;45486;-69
2023/09/29 09:47:16;;;;;;;;;0.00;0.00;;;;;22.62;57.16;101590.66;5119636;27;45515;-68
2023/09/29 09:49:50;;;;;;;;;0.00;0.00;;;;;22.67;57.50;101606.53;5119330;27;46068;-67
2023/09/29 09:52:34;;;;;;;;;0.25;0.25;;;;;22.64;57.64;101607.50;5115619;27;45494;-68
2023/09/29 09:55:10;;;;;;;;;1.75;0.00;;;;;22.56;57.78;101585.53;5118412;27;45542;-68
2023/09/29 09:57:42;;;;;;;;;0.00;0.00;;;;;22.68;57.16;101593.09;5121167;27;45526;-68
2023/09/29 10:00:10;;;;;;;;;1.00;1.00;;;;;22.85;56.77;101609.44;5120526;27;46491;-67
2023/09/29 10:02:52;;;;;;;;;0.50;0.50;;;;;22.82;56.38;101619.31;5135045;27;45505;-68
2023/09/29 10:05:23;;;;;;;;;1.25;0.00;;;;;22.74;56.47;101605.38;5118330;27;45842;-68
2023/09/29 10:07:51;;;;;;;;;4.00;1.00;;;;;22.67;56.68;101602.06;5116845;27;45534;-67
2023/09/29 10:10:31;;;;;;;;;1.00;1.00;;;;;22.68;56.40;101617.13;5107949;27;45513;-69
2023/09/29 10:13:00;;;;;;;;;1.00;1.00;;;;;22.61;56.06;101604.91;5115833;27;45641;-70
2023/09/29 10:15:30;;;;;;;;;1.00;1.00;;;;;22.68;55.83;101609.13;5120346;27;45369;-69
2023/09/29 10:17:57;;;;;;;;;1.00;0.00;;;;;22.82;55.60;101608.66;5120373;27;45439;-68
2023/09/29 10:20:26;;;;;;;;;0.00;0.00;;;;;22.82;54.98;101622.88;5116319;27;45584;-68
2023/09/29 10:23:15;;;;;;;;;1.00;0.00;;;;;22.79;54.97;101640.81;5120192;27;45560;-69
2023/09/29 10:25:45;;;;;;;;;0.75;0.75;;;;;22.74;55.21;101640.97;5109092;27;45346;-69
2023/09/29 10:28:12;;;;;;;;;0.00;0.00;;;;;22.68;55.01;101659.00;5118510;27;45416;-68
2023/09/29 10:30:39;;;;;;;;;1.00;1.00;;;;;22.61;55.28;101655.66;5118541;27;46165;-69
2023/09/29 10:33:13;;;;;;;;;3.00;1.00;;;;;22.65;55.29;101658.16;5118289;27;45478;-68
2023/09/29 10:35:45;;;;;;;;;1.00;1.00;;;;;22.72;55.42;101666.84;5096748;27;45336;-67
2023/09/29 10:38:21;;;;;;;;;1.50;1.25;;;;;22.71;55.07;101654.44;5115049;27;45476;-67
2023/09/29 10:40:48;;;;;;;;;2.75;1.75;;;;;22.94;54.57;101675.00;5118462;27;45512;-69
2023/09/29 10:43:23;;;;;;;;;2.00;1.75;;;;;22.98;53.96;101638.38;5118481;27;45627;-68
2023/09/29 10:45:56;;;;;;;;;1.75;1.00;;;;;23.08;54.44;101631.78;5132691;27;45462;-70
2023/09/29 10:48:26;;;;;;;;;2.75;2.25;;;;;23.54;53.53;101675.56;5114172;27;45377;-72
2023/09/29 10:50:53;;;;;;;;;6.00;2.00;;;;;23.67;52.86;101667.94;5113991;27;46328;-68
2023/09/29 10:53:22;;;;;;;;;4.00;4.00;;;;;23.69;52.49;101645.56;5100697;27;45322;-70
2023/09/29 10:55:49;;;;;;;;;3.00;3.00;;;;;23.86;51.61;101665.47;5119525;27;45433;-68
2023/09/29 10:58:17;;;;;;;;;4.25;2.00;;;;;24.20;51.13;101661.44;5118383;27;45646;-70
2023/09/29 11:00:43;;;;;;;;;2.75;2.75;;;;;24.22;50.88;101676.50;5118974;27;46008;-68
2023/09/29 11:03:12;;;;;;;;;3.25;2.75;;;;;24.41;50.81;101676.63;5119459;27;45286;-68
2023/09/29 11:05:53;;;;;;;;;4.25;2.25;;;;;24.42;50.99;101681.06;5117862;27;45337;-68
2023/09/29 11:08:27;;;;;;;;;2.00;2.00;;;;;24.78;51.88;101671.59;5117858;27;45388;-68
2023/09/29 11:10:56;;;;;;;;;3.25;2.75;;;;;27.71;45.10;101676.16;5118113;27;46309;-69
2023/09/29 11:13:23;;;;;;;;;5.25;4.00;;;;;29.45;41.48;101675.03;5117910;27;45352;-68
2023/09/29 11:15:49;;;;;;;;;4.25;2.50;;;;;30.72;38.87;101676.66;5118093;27;45466;-68
2023/09/29 11:18:28;;;;;;;;;4.75;3.00;;;;;30.92;38.20;101680.75;5119053;27;45588;-70
2023/09/29 11:20:54;;;;;;;;;4.25;3.00;;;;;29.91;39.30;101668.53;5117848;27;45355;-69
2023/09/29 11:23:20;;;;;;;;;4.80;3.00;;;;;29.11;39.84;101676.22;5117870;27;45489;-68
2023/09/29 11:25:50;;;;;;;;;2.75;2.25;;;;;30.87;36.96;101679.31;5118159;27;45338;-69
2023/09/29 11:28:17;;;;;;;;;4.00;4.00;;;;;32.28;34.84;101661.09;5133686;27;45640;-68